Time;durP1;ratioP1;P1;durP2;ratioP2;P2;SDS_P1;SDS_P2;PMS_P1;PMS_P2;Temp;Humidity;BMP_temperature;BMP_pressure;BME280_temperature;BME280_humidity;BME280_pressure;Samples;Min_cycle;Max_cycle;Signal;HPM_P1;HPM_P2
2022/12/01 00:02:10;;;;;;;15.35;11.90;;;;;;;7.53;100.00;100412.31;4992379;28;20065;-68
2022/12/01 00:04:35;;;;;;;17.00;12.32;;;;;;;7.63;100.00;100447.63;4992140;28;20440;-68
2022/12/01 00:07:01;;;;;;;16.25;13.57;;;;;;;7.67;100.00;100441.69;4991991;28;20034;-68
2022/12/01 00:12:10;;;;;;;20.13;14.73;;;;;;;7.36;100.00;100383.81;4993587;28;20045;-68
2022/12/01 00:14:35;;;;;;;26.75;19.65;;;;;;;7.44;100.00;100389.63;4992331;28;20117;-68
2022/12/01 00:17:01;;;;;;;21.10;16.50;;;;;;;7.43;100.00;100393.00;4993729;28;20108;-68
2022/12/01 00:19:27;;;;;;;18.13;14.77;;;;;;;7.44;100.00;100392.16;4993280;28;20041;-68
2022/12/01 00:21:52;;;;;;;25.10;20.05;;;;;;;7.28;100.00;100385.56;4992032;28;20053;-68
2022/12/01 00:24:18;;;;;;;27.33;20.85;;;;;;;7.70;100.00;100429.03;4993067;28;20062;-68
2022/12/01 00:26:43;;;;;;;27.70;21.15;;;;;;;7.58;100.00;100401.31;4991895;28;20037;-68
2022/12/01 00:29:09;;;;;;;23.98;19.20;;;;;;;7.68;100.00;100423.16;4992847;28;20056;-67
2022/12/01 00:31:34;;;;;;;22.20;16.20;;;;;;;7.33;100.00;100377.06;4993418;28;20084;-67
2022/12/01 00:34:00;;;;;;;20.13;16.33;;;;;;;7.58;100.00;100413.97;4991710;28;20117;-67
2022/12/01 00:36:26;;;;;;;21.75;14.90;;;;;;;7.52;100.00;100408.13;4993340;28;20030;-67
2022/12/01 00:38:55;;;;;;;17.67;13.93;;;;;;;7.57;100.00;100411.44;4991498;28;20050;-67
2022/12/01 00:41:22;;;;;;;17.35;13.23;;;;;;;7.40;100.00;100375.34;4992909;28;20034;-67
2022/12/01 00:43:47;;;;;;;17.48;13.00;;;;;;;7.72;100.00;100416.38;4992634;28;20489;-67
2022/12/01 00:46:13;;;;;;;15.63;12.25;;;;;;;7.45;100.00;100421.66;4992680;28;20058;-68
2022/12/01 00:48:38;;;;;;;15.98;11.90;;;;;;;7.13;100.00;100333.41;4993046;28;20470;-67
2022/12/01 00:51:04;;;;;;;15.98;11.95;;;;;;;7.61;100.00;100408.88;4992422;28;20536;-68
2022/12/01 00:53:30;;;;;;;18.45;13.93;;;;;;;7.62;100.00;100414.78;4992206;28;20030;-69
2022/12/01 00:55:55;;;;;;;16.02;12.57;;;;;;;7.29;100.00;100385.53;4992346;28;20121;-67
2022/12/01 00:58:22;;;;;;;17.45;12.70;;;;;;;7.56;100.00;100404.72;4991170;28;20539;-68
2022/12/01 01:00:48;;;;;;;17.45;13.80;;;;;;;7.39;100.00;100381.25;4991885;28;20061;-68
2022/12/01 01:03:13;;;;;;;13.82;10.52;;;;;;;7.51;100.00;100406.41;4992098;28;20482;-68
2022/12/01 01:05:40;;;;;;;16.27;12.30;;;;;;;7.04;100.00;100351.19;4992271;28;20505;-68
2022/12/01 01:08:08;;;;;;;14.57;10.90;;;;;;;7.62;100.00;100392.00;4992307;28;20118;-68
2022/12/01 01:10:40;;;;;;;14.00;10.90;;;;;;;7.57;100.00;100371.78;4992531;28;20122;-68
2022/12/01 01:13:06;;;;;;;12.98;9.82;;;;;;;7.51;100.00;100388.72;4991225;28;20034;-68
2022/12/01 01:15:31;;;;;;;13.95;9.55;;;;;;;7.50;100.00;100384.53;5011666;28;20040;-68
2022/12/01 01:17:57;;;;;;;9.65;8.10;;;;;;;7.08;100.00;100330.09;5011946;28;20072;-67
2022/12/01 01:20:22;;;;;;;10.63;7.82;;;;;;;7.74;100.00;100374.19;5026456;28;20429;-67
2022/12/01 01:22:48;;;;;;;8.07;6.38;;;;;;;7.23;100.00;100301.34;5011638;28;20034;-68
2022/12/01 01:25:13;;;;;;;8.30;6.57;;;;;;;7.39;100.00;100341.63;5011127;28;20084;-68
2022/12/01 01:27:38;;;;;;;8.38;5.75;;;;;;;7.20;100.00;100334.22;5026675;28;20471;-68
2022/12/01 01:30:05;;;;;;;9.15;5.32;;;;;;;7.37;100.00;100337.44;5011180;28;20053;-68
2022/12/01 01:32:30;;;;;;;7.10;4.93;;;;;;;7.57;100.00;100381.91;5009084;28;20041;-68
2022/12/01 01:34:55;;;;;;;6.72;4.57;;;;;;;7.08;100.00;100288.81;5011425;28;20453;-68
2022/12/01 01:37:21;;;;;;;6.70;4.82;;;;;;;7.61;100.00;100382.72;5011045;28;20493;-68
2022/12/01 01:39:46;;;;;;;5.13;3.92;;;;;;;7.19;100.00;100328.31;5010880;28;20092;-68
2022/12/01 01:42:13;;;;;;;4.60;3.80;;;;;;;7.32;100.00;100339.16;5011383;28;20084;-68
2022/12/01 01:44:50;;;;;;;5.00;4.10;;;;;;;7.26;100.00;100334.16;5008039;28;20088;-68
2022/12/01 01:47:38;;;;;;;5.00;4.10;;;;;;;7.27;100.00;100315.63;4991546;28;20034;-68
2022/12/01 01:50:13;;;;;;;5.60;4.32;;;;;;;7.66;100.00;100374.25;4991238;28;20080;-68
2022/12/01 01:52:50;;;;;;;6.53;4.43;;;;;;;7.43;100.00;100347.47;4991085;28;20034;-67
2022/12/01 01:55:16;;;;;;;6.25;4.18;;;;;;;7.16;100.00;100319.91;4991380;28;20501;-68
2022/12/01 01:57:43;;;;;;;5.30;4.03;;;;;;;7.46;100.00;100365.16;4990024;28;20034;-68
2022/12/01 02:00:17;;;;;;;6.68;4.68;;;;;;;7.34;100.00;100325.66;4989616;28;20030;-68
2022/12/01 02:02:46;;;;;;;5.35;4.28;;;;;;;7.15;100.00;100323.31;5006525;28;20066;-68
2022/12/01 02:05:16;;;;;;;6.35;4.40;;;;;;;7.38;100.00;100366.94;4991412;28;20034;-68
2022/12/01 02:07:42;;;;;;;5.87;4.07;;;;;;;6.91;100.00;100311.72;4991760;28;20109;-68
2022/12/01 02:10:11;;;;;;;5.40;4.18;;;;;;;7.08;100.00;100319.16;4991756;28;20518;-68
2022/12/01 02:12:48;;;;;;;6.53;4.25;;;;;;;6.87;100.00;100308.34;4991249;28;20128;-68
2022/12/01 02:15:20;;;;;;;5.80;4.40;;;;;;;7.40;100.00;100352.56;4991381;28;20033;-68
2022/12/01 02:17:51;;;;;;;;;;;;;;;7.43;100.00;100352.53;4991926;28;20030;-68
2022/12/01 02:20:22;;;;;;;6.00;4.40;;;;;;;7.53;100.00;100354.97;4989842;28;19921;-68
2022/12/01 02:23:25;;;;;;;6.70;5.60;;;;;;;7.46;100.00;100360.97;4990026;28;20120;-68
2022/12/01 02:26:15;;;;;;;6.43;4.93;;;;;;;7.37;100.00;100355.97;4991385;28;20070;-67
2022/12/01 02:29:12;;;;;;;6.45;4.68;;;;;;;7.24;100.00;100356.09;4991395;28;20423;-67
2022/12/01 02:31:50;;;;;;;6.90;4.72;;;;;;;6.76;100.00;100301.72;4958189;28;20046;-67
2022/12/01 02:34:29;;;;;;;6.90;4.35;;;;;;;6.95;100.00;100311.66;4989911;28;20037;-67
2022/12/01 02:37:16;;;;;;;7.50;5.22;;;;;;;6.98;100.00;100324.28;4991477;28;20498;-67
2022/12/01 02:39:54;;;;;;;7.55;4.95;;;;;;;7.21;100.00;100338.44;4990727;28;20043;-67
2022/12/01 02:43:14;;;;;;;8.45;4.78;;;;;;;6.92;100.00;100315.91;4991134;28;20045;-67
2022/12/01 02:45:26;;;;;;;7.45;5.05;;;;;;;7.07;100.00;100358.78;4985018;28;20904;-67
2022/12/01 02:47:55;;;;;;;7.13;5.15;;;;;;;7.11;100.00;100364.63;4990899;28;20058;-66
2022/12/01 02:50:22;;;;;;;7.90;5.18;;;;;;;7.18;100.00;100344.34;4990429;28;20420;-67
2022/12/01 02:52:48;;;;;;;7.72;5.00;;;;;;;7.17;100.00;100357.00;4990377;28;20030;-68
2022/12/01 02:55:14;;;;;;;6.55;4.57;;;;;;;6.77;100.00;100349.69;4990658;28;20089;-67
2022/12/01 02:57:39;;;;;;;6.45;4.32;;;;;;;7.07;100.00;100351.19;4989965;28;20518;-67
2022/12/01 03:00:05;;;;;;;6.93;4.28;;;;;;;6.85;100.00;100353.00;4988984;28;20034;-68
2022/12/01 03:02:49;;;;;;;6.95;4.30;;;;;;;6.99;100.00;100340.31;4990394;28;20081;-68
2022/12/01 03:05:54;;;;;;;5.90;4.22;;;;;;;6.60;100.00;100285.84;4993512;28;20077;-68
2022/12/01 03:08:55;;;;;;;5.65;4.10;;;;;;;7.12;100.00;100338.50;4994554;28;20525;-68
2022/12/01 03:11:33;;;;;;;7.40;4.65;;;;;;;6.58;100.00;100294.25;4975355;28;20137;-68
2022/12/01 03:14:21;;;;;;;5.45;4.35;;;;;;;6.76;100.00;100340.44;4993149;28;22009;-67
2022/12/01 03:16:50;;;;;;;6.20;4.47;;;;;;;6.91;100.00;100335.28;4994104;28;20030;-68
2022/12/01 03:19:39;;;;;;;5.70;4.28;;;;;;;6.88;100.00;100345.44;4994190;28;20073;-67
2022/12/01 03:22:18;;;;;;;5.88;4.68;;;;;;;6.84;100.00;100348.81;4994243;28;20022;-68
2022/12/01 03:24:46;;;;;;;6.07;4.40;;;;;;;6.96;100.00;100350.41;4993131;28;20045;-69
2022/12/01 03:27:16;;;;;;;6.35;4.60;;;;;;;6.83;100.00;100349.66;4993933;28;20759;-68
2022/12/01 03:29:45;;;;;;;6.47;4.70;;;;;;;6.28;100.00;100266.72;4994038;28;20038;-69
2022/12/01 03:32:19;;;;;;;7.63;5.53;;;;;;;6.86;100.00;100353.84;4993978;28;20035;-69
2022/12/01 03:34:55;;;;;;;9.40;6.03;;;;;;;6.60;100.00;100354.03;4993842;28;20033;-69
2022/12/01 03:37:26;;;;;;;7.50;5.28;;;;;;;6.63;100.00;100361.59;4999169;28;20512;-69
2022/12/01 03:39:56;;;;;;;7.40;5.43;;;;;;;6.58;100.00;100324.56;4992878;28;20042;-68
2022/12/01 03:42:56;;;;;;;8.95;6.32;;;;;;;6.63;100.00;100361.59;5005780;28;20049;-68
2022/12/01 03:45:32;;;;;;;8.43;5.85;;;;;;;6.45;100.00;100364.22;5012389;28;20180;-68
2022/12/01 03:47:58;;;;;;;7.70;5.30;;;;;;;6.12;100.00;100309.69;5011913;28;20052;-68
2022/12/01 03:50:32;;;;;;;6.85;5.40;;;;;;;6.18;100.00;100330.72;5013579;28;20037;-67
2022/12/01 03:53:10;;;;;;;8.27;5.20;;;;;;;5.98;100.00;100286.19;5011924;28;20045;-68
2022/12/01 03:55:41;;;;;;;7.68;4.47;;;;;;;6.35;100.00;100364.25;5007009;28;20123;-67
2022/12/01 03:58:13;;;;;;;7.05;4.15;;;;;;;6.03;100.00;100322.34;5011990;28;20034;-68
2022/12/01 04:00:39;;;;;;;5.88;4.32;;;;;;;6.31;100.00;100342.41;5013205;28;20786;-68
2022/12/01 04:03:05;;;;;;;6.30;4.13;;;;;;;5.96;100.00;100320.69;5012897;28;20026;-68
2022/12/01 04:05:33;;;;;;;5.32;3.53;;;;;;;5.95;100.00;100319.03;5011861;28;20037;-67
2022/12/01 04:07:59;;;;;;;5.18;3.70;;;;;;;5.94;100.00;100283.72;5011822;28;20034;-68
2022/12/01 04:10:25;;;;;;;5.05;3.67;;;;;;;6.41;100.00;100381.91;5013109;28;20029;-68
2022/12/01 04:12:57;;;;;;;6.35;3.75;;;;;;;5.99;100.00;100333.31;5011408;28;20485;-67
2022/12/01 04:15:23;;;;;;;5.05;3.53;;;;;;;5.98;100.00;100326.56;5013214;28;20121;-67
2022/12/01 04:17:48;;;;;;;4.75;3.85;;;;;;;6.09;100.00;100340.00;5012490;28;20053;-68
2022/12/01 04:20:14;;;;;;;5.78;3.90;;;;;;;6.15;100.00;100329.03;5011402;28;20033;-68
2022/12/01 04:22:40;;;;;;;5.75;3.35;;;;;;;6.07;100.00;100364.41;5011551;28;20544;-68
2022/12/01 04:25:06;;;;;;;4.45;3.15;;;;;;;6.31;100.00;100398.78;5012771;28;20029;-70
2022/12/01 04:27:32;;;;;;;6.00;2.90;;;;;;;6.39;100.00;100381.94;5009928;28;20037;-67
2022/12/01 04:29:58;;;;;;;5.68;3.40;;;;;;;5.93;100.00;100337.53;4996333;28;20034;-69
2022/12/01 04:32:23;;;;;;;3.85;3.00;;;;;;;6.07;100.00;100338.31;4992926;28;20026;-69
2022/12/01 04:34:49;;;;;;;4.47;3.08;;;;;;;6.22;100.00;100338.22;4992169;28;20125;-68
2022/12/01 04:37:16;;;;;;;5.75;3.50;;;;;;;6.29;100.00;100372.72;5005909;28;20437;-68
2022/12/01 04:39:41;;;;;;;3.78;2.70;;;;;;;6.41;100.00;100384.44;5012383;28;20045;-69
2022/12/01 04:42:07;;;;;;;3.53;2.20;;;;;;;5.99;100.00;100347.59;5011183;28;20034;-67
2022/12/01 04:44:33;;;;;;;3.63;2.22;;;;;;;6.03;100.00;100324.03;5012369;28;20033;-68
2022/12/01 04:47:00;;;;;;;3.50;2.47;;;;;;;6.19;100.00;100367.69;5011863;28;20050;-68
2022/12/01 04:49:25;;;;;;;2.80;2.30;;;;;;;6.31;100.00;100378.59;5011002;28;20420;-68
2022/12/01 04:51:51;;;;;;;4.43;2.40;;;;;;;5.76;100.00;100292.16;5012197;28;20064;-68
2022/12/01 04:54:17;;;;;;;3.13;2.58;;;;;;;5.83;100.00;100303.06;5012056;28;20041;-68
2022/12/01 04:56:43;;;;;;;4.10;2.72;;;;;;;7.17;100.00;100357.81;5011020;28;20037;-70
2022/12/01 04:59:09;;;;;;;5.20;3.53;;;;;;;6.27;100.00;100387.03;5012920;28;20030;-70
2022/12/01 05:01:34;;;;;;;5.88;4.05;;;;;;;5.91;100.00;100337.53;5011249;28;20036;-70
2022/12/01 05:04:00;;;;;;;5.75;3.45;;;;;;;5.94;100.00;100331.66;5027374;28;20501;-70
2022/12/01 05:06:27;;;;;;;8.27;3.92;;;;;;;6.41;100.00;100399.59;5012007;28;20037;-70
2022/12/01 05:08:57;;;;;;;5.93;3.40;;;;;;;6.14;100.00;100347.53;5012389;28;20026;-70
2022/12/01 05:11:25;;;;;;;3.92;2.97;;;;;;;6.21;100.00;100363.50;5012718;28;20030;-70
2022/12/01 05:13:51;;;;;;;3.97;3.05;;;;;;;6.42;100.00;100376.84;5010667;28;20030;-70
2022/12/01 05:16:19;;;;;;;5.72;3.72;;;;;;;6.33;100.00;100339.03;5005689;28;20038;-69
2022/12/01 05:20:55;;;;;;;7.28;6.15;;;;;;;6.31;100.00;100360.06;5001701;28;20027;-70
2022/12/01 05:21:39;;;;;;;6.38;4.40;;;;;;;6.28;100.00;100342.44;4992771;28;20050;-69
2022/12/01 05:24:06;;;;;;;5.80;4.40;;;;;;;6.36;100.00;100386.16;5000549;28;20034;-70
2022/12/01 05:26:32;;;;;;;6.07;4.55;;;;;;;6.03;100.00;100327.41;5011251;28;20131;-71
2022/12/01 05:28:57;;;;;;;6.22;4.35;;;;;;;6.05;100.00;100332.44;5012611;28;20508;-71
2022/12/01 05:31:22;;;;;;;6.25;4.30;;;;;;;6.38;100.00;100367.59;5012603;28;20113;-70
2022/12/01 05:33:48;;;;;;;6.38;4.60;;;;;;;6.45;100.00;100371.81;5011429;28;20030;-69
2022/12/01 05:36:13;;;;;;;6.57;5.05;;;;;;;6.16;100.00;100348.34;5009473;28;20401;-70
2022/12/01 05:38:39;;;;;;;6.25;4.15;;;;;;;6.36;100.00;100361.72;5008530;28;20420;-69
2022/12/01 05:41:04;;;;;;;8.05;5.18;;;;;;;6.49;100.00;100363.38;5010869;28;20041;-69
2022/12/01 05:43:30;;;;;;;9.60;6.65;;;;;;;6.22;100.00;100322.28;5009170;28;20030;-69
2022/12/01 05:45:56;;;;;;;12.35;7.00;;;;;;;6.27;100.00;100326.44;4997748;28;20030;-68
2022/12/01 05:48:22;;;;;;;10.80;6.47;;;;;;;6.44;100.00;100364.25;5010857;28;20041;-70
2022/12/01 05:50:48;;;;;;;12.23;6.40;;;;;;;6.44;100.00;100304.47;5011195;28;20022;-70
2022/12/01 05:53:14;;;;;;;9.80;6.82;;;;;;;6.67;100.00;100329.59;5011165;28;20034;-69
2022/12/01 05:55:39;;;;;;;14.07;6.30;;;;;;;6.54;100.00;100348.16;5009797;28;20029;-69
2022/12/01 05:58:05;;;;;;;7.75;5.55;;;;;;;6.47;100.00;100334.75;5010167;28;20030;-70
2022/12/01 06:00:30;;;;;;;7.00;5.40;;;;;;;6.46;100.00;100335.59;5011090;28;20485;-69
2022/12/01 06:02:56;;;;;;;8.82;5.18;;;;;;;6.85;100.00;100390.09;5011466;28;20465;-70
2022/12/01 06:05:21;;;;;;;8.95;6.00;;;;;;;6.78;100.00;100396.88;5011343;28;20026;-69
2022/12/01 06:07:47;;;;;;;12.63;9.25;;;;;;;6.89;100.00;100385.00;5010626;28;20424;-68
2022/12/01 06:10:12;;;;;;;12.60;9.30;;;;;;;6.77;100.00;100394.34;5011059;28;20030;-69
2022/12/01 06:12:38;;;;;;;10.73;7.32;;;;;;;6.83;100.00;100394.31;5010388;28;20085;-69
2022/12/01 06:15:05;;;;;;;10.48;7.82;;;;;;;6.70;100.00;100344.69;5010483;28;20068;-68
2022/12/01 06:17:31;;;;;;;10.38;8.05;;;;;;;6.86;100.00;100379.97;5010859;28;20049;-68
2022/12/01 06:19:57;;;;;;;14.38;10.60;;;;;;;6.96;100.00;100386.66;5010612;28;20033;-69
2022/12/01 06:22:22;;;;;;;13.57;10.02;;;;;;;6.58;100.00;100322.03;5008718;28;20468;-69
2022/12/01 06:24:48;;;;;;;16.02;11.23;;;;;;;6.79;100.00;100385.09;5010577;28;20076;-68
2022/12/01 06:27:13;;;;;;;11.48;8.70;;;;;;;6.71;100.00;100389.34;5008457;28;20038;-68
2022/12/01 06:29:39;;;;;;;10.13;6.85;;;;;;;6.71;100.00;100369.97;5004814;28;20034;-69
2022/12/01 06:32:04;;;;;;;8.05;6.50;;;;;;;6.62;100.00;100321.19;4991143;28;20022;-68
2022/12/01 06:34:30;;;;;;;6.72;5.20;;;;;;;6.63;100.00;100380.97;4990749;28;20033;-69
2022/12/01 06:36:55;;;;;;;5.15;3.90;;;;;;;6.53;100.00;100347.34;4997693;28;20361;-68
2022/12/01 06:39:21;;;;;;;5.88;3.40;;;;;;;6.55;100.00;100342.28;4999631;28;20145;-68
2022/12/01 06:41:46;;;;;;;3.05;2.10;;;;;;;6.77;100.00;100397.69;4990745;28;20421;-69
2022/12/01 06:44:12;;;;;;;2.83;1.70;;;;;;;6.79;100.00;100390.13;4989243;28;20034;-69
2022/12/01 06:46:38;;;;;;;2.80;2.25;;;;;;;6.82;100.00;100397.69;4990819;28;20030;-68
2022/12/01 06:49:04;;;;;;;2.72;2.20;;;;;;;6.75;100.00;100396.91;4991049;28;20038;-69
2022/12/01 06:51:32;;;;;;;2.97;2.35;;;;;;;6.76;100.00;100398.56;4991071;28;20088;-69
2022/12/01 06:53:58;;;;;;;2.90;2.00;;;;;;;6.69;100.00;100381.78;5004098;28;20033;-70
2022/12/01 06:56:24;;;;;;;2.05;1.55;;;;;;;6.51;100.00;100341.47;5003197;28;20038;-70
2022/12/01 06:58:49;;;;;;;3.53;2.20;;;;;;;7.07;100.00;100388.25;4990042;28;20062;-69
2022/12/01 07:01:15;;;;;;;2.50;1.65;;;;;;;6.93;100.00;100393.41;4991019;28;20548;-71
2022/12/01 07:03:41;;;;;;;3.55;2.38;;;;;;;6.84;100.00;100396.81;4989507;28;20413;-71
2022/12/01 07:06:07;;;;;;;3.40;2.45;;;;;;;6.80;100.00;100349.69;4990776;28;20445;-71
2022/12/01 07:08:33;;;;;;;4.20;2.60;;;;;;;6.76;100.00;100332.88;4991247;28;20161;-70
2022/12/01 07:11:03;;;;;;;4.00;3.33;;;;;;;6.78;100.00;100371.59;4990350;28;20076;-71
2022/12/01 07:13:29;;;;;;;4.25;3.15;;;;;;;6.47;100.00;100304.47;4986524;28;20061;-71
2022/12/01 07:15:54;;;;;;;5.47;3.80;;;;;;;6.74;100.00;100344.69;4990508;28;20034;-72
2022/12/01 07:18:20;;;;;;;4.82;3.10;;;;;;;7.23;100.00;100394.88;4990844;28;20026;-70
2022/12/01 07:20:46;;;;;;;11.07;7.53;;;;;;;7.16;100.00;100393.22;4990343;28;20027;-70
2022/12/01 07:23:11;;;;;;;15.90;10.35;;;;;;;7.21;100.00;100401.63;4990736;28;20410;-70
2022/12/01 07:25:37;;;;;;;8.10;4.80;;;;;;;7.05;100.00;100411.03;4990585;28;20058;-69
2022/12/01 07:28:02;;;;;;;7.28;4.60;;;;;;;6.71;100.00;100377.56;4990289;28;20100;-69
2022/12/01 07:30:28;;;;;;;6.68;3.78;;;;;;;7.06;100.00;100406.78;4989567;28;20436;-70
2022/12/01 07:32:53;;;;;;;10.60;7.45;;;;;;;6.87;100.00;100358.91;4990322;28;20381;-69
2022/12/01 07:35:19;;;;;;;14.98;9.70;;;;;;;7.25;100.00;100398.22;4990424;28;20046;-69
2022/12/01 07:37:44;;;;;;;34.40;27.20;;;;;;;6.65;100.00;100352.31;4991087;28;20480;-72
2022/12/01 07:40:10;;;;;;;41.28;16.27;;;;;;;7.11;100.00;100408.41;4991527;28;20569;-74
2022/12/01 07:42:40;;;;;;;6.68;5.63;;;;;;;6.83;100.00;100399.38;4990576;28;20034;-71
2022/12/01 07:45:05;;;;;;;7.57;4.65;;;;;;;7.06;100.00;100410.16;4990872;28;20034;-70
2022/12/01 07:47:31;;;;;;;6.38;4.25;;;;;;;6.76;100.00;100359.81;4989747;28;20053;-70
2022/12/01 07:49:56;;;;;;;5.40;3.95;;;;;;;7.08;100.00;100395.81;4992677;28;20116;-70
2022/12/01 07:52:21;;;;;;;6.47;5.20;;;;;;;7.19;100.00;100399.09;4991733;28;20081;-70
2022/12/01 07:54:47;;;;;;;10.73;7.20;;;;;;;7.10;100.00;100405.91;4992509;28;20131;-70
2022/12/01 07:57:13;;;;;;;9.40;6.68;;;;;;;7.58;100.00;100396.25;4993323;28;20490;-70
2022/12/01 07:59:39;;;;;;;10.13;6.68;;;;;;;6.91;100.00;100377.41;4993682;28;20035;-70
2022/12/01 08:02:05;;;;;;;10.52;6.82;;;;;;;6.90;100.00;100381.63;4992671;28;20034;-70
2022/12/01 08:04:30;;;;;;;12.32;8.60;;;;;;;6.84;100.00;100358.09;4993058;28;20603;-70
2022/12/01 08:06:56;;;;;;;13.48;9.48;;;;;;;6.64;100.00;100311.91;4995482;28;20034;-70
2022/12/01 08:09:21;;;;;;;11.15;8.18;;;;;;;7.05;100.00;100400.91;5004441;28;20092;-70
2022/12/01 08:11:47;;;;;;;9.27;5.93;;;;;;;6.56;100.00;100311.13;5006282;28;20027;-71
2022/12/01 08:14:12;;;;;;;8.07;6.45;;;;;;;7.15;100.00;100399.97;4992351;28;20030;-70
2022/12/01 08:16:38;;;;;;;9.05;6.20;;;;;;;7.06;100.00;100389.94;4992566;28;20026;-71
2022/12/01 08:19:03;;;;;;;9.60;6.78;;;;;;;6.83;100.00;100347.13;4994025;28;20081;-70
2022/12/01 08:21:29;;;;;;;8.73;6.32;;;;;;;6.54;100.00;100311.13;4992638;28;20121;-71
2022/12/01 08:23:56;;;;;;;8.45;5.45;;;;;;;6.87;100.00;100341.19;5000244;28;20034;-71
2022/12/01 08:26:23;;;;;;;8.15;6.32;;;;;;;7.09;100.00;100396.66;4992942;28;20092;-70
2022/12/01 08:28:49;;;;;;;8.80;6.25;;;;;;;6.90;100.00;100355.50;4993296;28;20037;-72
2022/12/01 08:31:34;;;;;;;6.05;4.95;;;;;;;7.15;100.00;100397.44;4990760;28;20121;-71
2022/12/01 08:33:59;;;;;;;5.75;4.40;;;;;;;7.16;100.00;100396.59;4992237;28;20038;-71
2022/12/01 08:36:25;;;;;;;7.05;5.32;;;;;;;7.08;100.00;100378.13;4991563;28;20042;-71
2022/12/01 08:38:53;;;;;;;8.18;6.28;;;;;;;6.55;100.00;100291.78;4991981;28;20406;-71
2022/12/01 08:41:19;;;;;;;8.85;7.13;;;;;;;6.87;100.00;100326.03;4991625;28;20500;-70
2022/12/01 08:43:44;;;;;;;9.38;7.25;;;;;;;7.31;100.00;100371.19;4992322;28;20030;-71
2022/12/01 08:46:11;;;;;;;9.15;6.80;;;;;;;7.11;100.00;100378.09;4993379;28;20641;-71
2022/12/01 08:48:38;;;;;;;10.23;7.25;;;;;;;7.06;100.00;100369.72;4993064;28;20093;-71
2022/12/01 08:51:15;;;;;;;9.00;6.55;;;;;;;6.72;100.00;100310.16;5007221;28;20034;-68
2022/12/01 08:53:44;;;;;;;12.43;5.47;;;;;;;8.57;100.00;100352.94;4991923;28;20038;-70
2022/12/01 08:56:29;;;;;;;8.55;6.18;;;;;;;7.00;100.00;100309.97;5007842;28;20048;-70
2022/12/01 08:58:55;;;;;;;8.88;5.60;;;;;;;7.35;100.00;100361.91;4990587;28;20038;-70
2022/12/01 09:01:20;;;;;;;7.38;6.22;;;;;;;7.01;100.00;100315.84;4991731;28;20553;-69
2022/12/01 09:03:46;;;;;;;10.38;7.63;;;;;;;7.42;100.00;100346.66;4992182;28;20058;-70
2022/12/01 09:06:20;;;;;;;12.02;7.78;;;;;;;7.27;100.00;100331.63;4990688;28;20034;-70
2022/12/01 09:08:46;;;;;;;12.65;8.27;;;;;;;7.22;100.00;100348.53;4992722;28;20030;-70
2022/12/01 09:11:15;;;;;;;8.30;5.95;;;;;;;6.92;100.00;100309.19;4992865;28;20109;-70
2022/12/01 09:13:42;;;;;;;14.07;5.45;;;;;;;9.67;100.00;100325.75;4992403;28;20088;-67
2022/12/01 09:16:13;;;;;;;8.77;6.00;;;;;;;8.40;100.00;100342.16;4992366;28;20069;-70
2022/12/01 09:18:39;;;;;;;8.95;6.22;;;;;;;7.34;100.00;100337.47;4992189;28;20038;-69
2022/12/01 09:21:13;;;;;;;10.15;6.82;;;;;;;7.40;100.00;100322.22;4991872;28;20030;-69
2022/12/01 09:23:39;;;;;;;9.95;7.45;;;;;;;6.99;100.00;100277.94;4991874;28;20035;-69
2022/12/01 09:26:06;;;;;;;9.98;7.25;;;;;;;7.11;100.00;100307.31;4990703;28;20042;-70
2022/12/01 09:28:31;;;;;;;8.80;7.15;;;;;;;6.97;100.00;100281.34;4992043;28;20042;-70
2022/12/01 09:31:09;;;;;;;8.18;6.45;;;;;;;6.93;100.00;100255.25;4992225;28;21716;-70
2022/12/01 09:33:35;;;;;;;8.45;5.72;;;;;;;7.01;100.00;100275.41;4992215;28;20470;-71
2022/12/01 09:36:02;;;;;;;6.78;5.40;;;;;;;7.34;100.00;100317.22;4991525;28;20037;-71
2022/12/01 09:38:28;;;;;;;4.32;3.47;;;;;;;7.31;100.00;100330.72;4990536;28;20465;-70
2022/12/01 09:40:55;;;;;;;5.47;3.90;;;;;;;7.34;100.00;100329.88;4991833;28;20068;-71
2022/12/01 09:43:28;;;;;;;6.20;4.63;;;;;;;6.81;100.00;100225.03;4991759;28;20038;-70
2022/12/01 09:46:01;;;;;;;7.78;5.70;;;;;;;7.19;100.00;100269.34;4992094;28;20030;-70
2022/12/01 09:48:44;;;;;;;6.10;4.63;;;;;;;7.63;100.00;100307.66;4990799;28;20034;-70
2022/12/01 09:51:18;;;;;;;7.90;6.22;;;;;;;7.53;100.00;100306.06;4991247;28;20085;-70
2022/12/01 09:53:46;;;;;;;13.25;8.73;;;;;;;7.22;100.00;100257.50;4990751;28;20057;-71
2022/12/01 09:56:27;;;;;;;7.03;5.88;;;;;;;7.31;100.00;100309.69;4990251;28;20136;-70
2022/12/01 09:59:05;;;;;;;7.57;6.05;;;;;;;7.35;100.00;100264.09;4991614;28;20077;-70
2022/12/01 10:01:35;;;;;;;11.32;8.50;;;;;;;7.45;100.00;100285.91;4990852;28;20777;-70
2022/12/01 10:04:21;;;;;;;7.35;5.10;;;;;;;7.42;100.00;100297.75;4991189;28;20130;-70
2022/12/01 10:06:50;;;;;;;101.18;27.42;;;;;;;9.39;100.00;100267.03;4989824;28;20594;-71
2022/12/01 10:09:23;;;;;;;27.27;21.77;;;;;;;7.64;100.00;100302.59;5005404;28;20471;-70
2022/12/01 10:11:53;;;;;;;29.15;19.05;;;;;;;7.55;100.00;100272.31;5008638;28;20053;-70
2022/12/01 10:14:19;;;;;;;30.48;16.00;;;;;;;7.31;100.00;100249.00;4991405;28;20072;-69
2022/12/01 10:16:59;;;;;;;14.77;9.40;;;;;;;7.26;100.00;100238.94;4991513;28;20026;-69
2022/12/01 10:19:49;;;;;;;8.95;6.53;;;;;;;7.43;100.00;100277.50;5009098;28;20042;-70
2022/12/01 10:22:23;;;;;;;7.63;5.50;;;;;;;7.42;100.00;100292.69;5011430;28;20084;-69
2022/12/01 10:24:57;;;;;;;8.52;5.95;;;;;;;7.50;100.00;100299.38;5009369;28;20041;-70
2022/12/01 10:27:46;;;;;;;5.80;4.68;;;;;;;7.49;100.00;100300.22;5011376;28;20033;-70
2022/12/01 10:30:18;;;;;;;8.02;5.30;;;;;;;7.59;100.00;100300.94;5010528;28;20105;-69
2022/12/01 10:32:50;;;;;;;;;;;;;;;7.56;100.00;100301.00;5009384;28;20457;-70
2022/12/01 10:35:17;;;;;;;5.15;3.75;;;;;;;7.50;100.00;100306.97;5010368;28;19913;-70
2022/12/01 10:37:44;;;;;;;8.00;5.25;;;;;;;7.52;100.00;100301.88;5010436;28;20041;-70
2022/12/01 10:40:14;;;;;;;6.20;4.63;;;;;;;7.49;100.00;100267.31;5011012;28;20475;-70
2022/12/01 10:42:45;;;;;;;6.65;4.70;;;;;;;7.63;100.00;100308.50;5010658;28;20029;-70
2022/12/01 10:45:29;;;;;;;13.13;8.32;;;;;;;7.38;100.00;100255.66;5010505;28;20042;-70
2022/12/01 10:48:16;;;;;;;46.92;24.50;;;;;;;7.59;100.00;100306.84;5010503;28;20034;-70
2022/12/01 10:50:45;;;;;;;10.13;6.07;;;;;;;7.58;100.00;100301.81;5010781;28;20030;-69
2022/12/01 10:53:30;;;;;;;52.65;28.25;;;;;;;7.58;100.00;100310.25;5009335;28;20041;-70
2022/12/01 10:56:10;;;;;;;17.65;10.15;;;;;;;7.53;100.00;100289.22;5010103;28;20409;-70
2022/12/01 10:58:42;;;;;;;6.22;4.53;;;;;;;6.85;100.00;100210.69;5010229;28;20462;-70
2022/12/01 11:01:16;;;;;;;6.65;4.57;;;;;;;7.18;100.00;100271.03;5009814;28;20061;-70
2022/12/01 11:03:42;;;;;;;13.95;9.90;;;;;;;7.08;100.00;100254.28;4659783;28;10000491;-72
2022/12/01 11:06:09;;;;;;;7.97;6.07;;;;;;;6.94;100.00;100245.97;5008263;28;20095;-70
2022/12/01 11:08:37;;;;;;;18.60;12.68;;;;;;;7.31;100.00;100297.03;5008161;28;20034;-70
2022/12/01 11:11:03;;;;;;;7.60;5.53;;;;;;;7.19;100.00;100295.44;5008527;28;20504;-70
2022/12/01 11:13:34;;;;;;;16.70;10.52;;;;;;;6.84;100.00;100244.38;5006784;28;20060;-70
2022/12/01 11:16:02;;;;;;;16.27;9.90;;;;;;;7.23;100.00;100299.63;5006659;28;20077;-69
2022/12/01 11:18:35;;;;;;;9.05;5.72;;;;;;;7.16;100.00;100299.69;5008999;28;20140;-71
2022/12/01 11:21:13;;;;;;;54.08;27.80;;;;;;;6.71;100.00;100231.03;5008965;28;20049;-70
2022/12/01 11:23:48;;;;;;;52.05;26.98;;;;;;;6.65;100.00;100246.25;5009077;28;20044;-71
2022/12/01 11:26:25;;;;;;;57.55;30.75;;;;;;;6.98;100.00;100290.59;5012581;28;20033;-70
2022/12/01 11:29:03;;;;;;;21.10;12.30;;;;;;;6.61;100.00;100191.56;5011575;28;20038;-70
2022/12/01 11:31:41;;;;;;;6.60;4.72;;;;;;;6.94;100.00;100288.94;5011196;28;20061;-70
2022/12/01 11:34:18;;;;;;;38.75;21.17;;;;;;;7.01;100.00;100276.22;5009074;28;20066;-71
2022/12/01 11:36:47;;;;;;;12.13;9.70;;;;;;;7.05;100.00;100278.75;5011205;28;20037;-70